createdAt,value
2022-08-04T00:02:24.281Z,75538.25
2022-08-04T00:05:10.596Z,75545.97
2022-08-04T00:07:48.380Z,75542.09
2022-08-04T00:10:20.070Z,75538.25
2022-08-04T00:12:49.896Z,75538.25
2022-08-04T00:15:18.506Z,75534.41
2022-08-04T00:17:59.311Z,75534.41
2022-08-04T00:20:31.209Z,75534.41
2022-08-04T00:23:00.254Z,75534.41
2022-08-04T00:25:28.035Z,75542.09
2022-08-04T00:27:55.333Z,75551.75
2022-08-04T00:30:22.447Z,75553.66
2022-08-04T00:32:50.054Z,75553.66
2022-08-04T00:35:19.021Z,75563.31
2022-08-04T00:37:46.937Z,75565.22
2022-08-04T00:40:45.230Z,75578.72
2022-08-04T00:43:33.344Z,75590.28
2022-08-04T00:46:35.213Z,75592.19
2022-08-04T00:49:13.915Z,75588.34
2022-08-04T00:51:40.630Z,75596.03
2022-08-04T00:54:29.393Z,75605.69
2022-08-04T00:57:47.297Z,75607.59
2022-08-04T01:00:15.946Z,75615.31
2022-08-04T01:03:13.721Z,75615.31
2022-08-04T01:06:08.460Z,75626.88
2022-08-04T01:08:59.868Z,75619.16
2022-08-04T01:11:56.588Z,75623.03
2022-08-04T01:14:56.928Z,75615.31
2022-08-04T01:17:35.796Z,75626.88
2022-08-04T01:20:10.823Z,75646.13
2022-08-04T01:22:40.546Z,75646.13
2022-08-04T01:25:44.613Z,75646.13
2022-08-04T01:28:45.168Z,75653.84
2022-08-04T01:31:35.062Z,75657.69
2022-08-04T01:34:06.955Z,75650.00
2022-08-04T01:36:35.773Z,75661.56
2022-08-04T01:39:26.524Z,75671.19
2022-08-04T01:41:58.238Z,75669.25
2022-08-04T01:44:28.920Z,75676.97
2022-08-04T01:46:55.897Z,75684.66
2022-08-04T01:49:27.804Z,75709.72
2022-08-04T01:51:57.164Z,75717.41
2022-08-04T01:54:26.589Z,75711.63
2022-08-04T01:56:55.426Z,75711.63
2022-08-04T01:59:22.708Z,75715.50
2022-08-04T02:01:49.730Z,75715.50
2022-08-04T02:04:23.514Z,75723.19
2022-08-04T02:07:08.784Z,75723.19
2022-08-04T02:09:59.010Z,75721.28
2022-08-04T02:12:43.110Z,75721.28
2022-08-04T02:15:44.822Z,75721.28
2022-08-04T02:18:24.589Z,75721.28
2022-08-04T02:20:58.155Z,75715.50
2022-08-04T02:23:47.205Z,75719.34
2022-08-04T02:26:27.672Z,75715.50
2022-08-04T02:29:20.295Z,75703.94
2022-08-04T02:31:57.864Z,75715.50
2022-08-04T02:34:29.355Z,75727.06
2022-08-04T02:36:56.775Z,75734.75
2022-08-04T02:39:25.004Z,75734.75
2022-08-04T02:41:53.191Z,75730.91
2022-08-04T02:44:23.967Z,75734.75
2022-08-04T02:46:55.139Z,75730.91
2022-08-04T02:49:23.242Z,75730.91
2022-08-04T02:51:53.146Z,75738.63
2022-08-04T02:54:33.645Z,75738.63
2022-08-04T02:57:04.421Z,75742.47
2022-08-04T03:00:14.272Z,75746.31
2022-08-04T03:02:58.614Z,75746.31
2022-08-04T03:05:57.524Z,75746.31
2022-08-04T03:08:32.015Z,75765.59
2022-08-04T03:11:26.713Z,75777.13
2022-08-04T03:14:35.137Z,75777.13
2022-08-04T03:17:04.809Z,75775.22
2022-08-04T03:19:53.113Z,75771.38
2022-08-04T03:22:28.497Z,75771.38
2022-08-04T03:25:23.661Z,75767.50
2022-08-04T03:28:04.769Z,75773.28
2022-08-04T03:30:53.430Z,75773.28
2022-08-04T03:33:58.154Z,75775.22
2022-08-04T03:37:02.533Z,75777.13
2022-08-04T03:40:08.953Z,75765.59
2022-08-04T03:43:58.165Z,75773.28
2022-08-04T03:46:11.495Z,75775.22
2022-08-04T03:48:41.036Z,75769.44
2022-08-04T03:51:38.358Z,75750.16
2022-08-04T03:54:23.602Z,75738.63
2022-08-04T03:57:09.099Z,75734.75
2022-08-04T04:00:02.990Z,75561.38
2022-08-04T04:02:46.845Z,75349.47
2022-08-04T04:05:16.310Z,75168.41
2022-08-04T04:08:13.738Z,74987.34
2022-08-04T04:11:07.056Z,74894.88
2022-08-04T04:14:01.816Z,74736.94
2022-08-04T04:16:34.463Z,74640.66
2022-08-04T04:19:38.339Z,74476.94
2022-08-04T04:22:20.207Z,74398.00
2022-08-04T04:25:01.216Z,74242.00
2022-08-04T04:27:52.114Z,74255.47
2022-08-04T04:30:24.724Z,74159.19
2022-08-04T04:33:41.238Z,73995.53
2022-08-04T04:36:11.725Z,73960.84
2022-08-04T04:38:38.433Z,73858.81
2022-08-04T04:41:17.192Z,73862.66
2022-08-04T04:44:19.331Z,73858.81
2022-08-04T04:46:54.654Z,73885.75
2022-08-04T04:49:51.189Z,74005.16
2022-08-04T04:52:42.050Z,73895.41
2022-08-04T04:55:24.671Z,73912.72
2022-08-04T04:57:55.253Z,73797.19
2022-08-04T05:00:26.452Z,73980.13
2022-08-04T05:03:17.803Z,73943.53
2022-08-04T05:06:07.979Z,73966.63
2022-08-04T05:08:59.922Z,74186.16
2022-08-04T05:11:38.741Z,74155.34
2022-08-04T05:14:37.122Z,74132.25
2022-08-04T05:17:04.713Z,74101.44
2022-08-04T05:19:49.937Z,74101.44
2022-08-04T05:22:29.789Z,73801.03
2022-08-04T05:25:08.086Z,73770.25
2022-08-04T05:27:45.586Z,73477.59
2022-08-04T05:30:13.169Z,73450.63
2022-08-04T05:32:55.001Z,73315.84
2022-08-04T05:36:18.658Z,73381.31
2022-08-04T05:38:34.432Z,73231.16
2022-08-04T05:41:02.218Z,73196.50
2022-08-04T05:43:30.567Z,73250.41
2022-08-04T05:45:58.729Z,73285.06
2022-08-04T05:48:27.650Z,73558.44
2022-08-04T05:51:00.583Z,73783.72
2022-08-04T05:53:29.307Z,73895.41
2022-08-04T05:55:59.516Z,73419.81
2022-08-04T05:58:31.918Z,73489.13
2022-08-04T06:01:01.008Z,73500.69
2022-08-04T06:03:30.764Z,73554.59
2022-08-04T06:05:58.754Z,73500.69
2022-08-04T06:08:25.831Z,73333.19
2022-08-04T06:10:56.008Z,73308.16
2022-08-04T06:13:48.869Z,73487.22
2022-08-04T06:16:28.896Z,73435.22
2022-08-04T06:20:00.958Z,73466.03
2022-08-04T06:21:55.593Z,73454.47
2022-08-04T06:24:26.477Z,73242.69
2022-08-04T06:26:56.904Z,73238.84
2022-08-04T06:29:36.182Z,73331.25
2022-08-04T06:32:30.769Z,73046.34
2022-08-04T06:35:02.154Z,73223.44
2022-08-04T06:37:41.908Z,72996.28
2022-08-04T06:40:29.473Z,73111.78
2022-08-04T06:43:01.300Z,73365.91
2022-08-04T06:45:29.468Z,73281.22
2022-08-04T06:47:56.497Z,73123.34
2022-08-04T06:51:28.277Z,73188.81
2022-08-04T06:53:12.081Z,73242.69
2022-08-04T06:55:40.943Z,73138.75
2022-08-04T06:58:10.894Z,72927.00
2022-08-04T07:00:40.518Z,72888.50
2022-08-04T07:03:07.676Z,73240.78
2022-08-04T07:05:36.074Z,73050.19
2022-08-04T07:08:04.521Z,72957.78
2022-08-04T07:10:31.760Z,73077.16
2022-08-04T07:13:00.213Z,73077.16
2022-08-04T07:15:28.293Z,73027.09
2022-08-04T07:18:00.000Z,73090.63
2022-08-04T07:20:34.577Z,72915.44
2022-08-04T07:23:04.902Z,72938.53
2022-08-04T07:25:58.958Z,72880.78
2022-08-04T07:28:22.206Z,73219.59
2022-08-04T07:30:49.937Z,73184.94
2022-08-04T07:33:17.535Z,73246.56
2022-08-04T07:36:09.650Z,73092.53
2022-08-04T07:38:33.680Z,73154.16
2022-08-04T07:41:35.452Z,73242.69
2022-08-04T07:43:54.881Z,72992.44
2022-08-04T07:46:21.941Z,72884.66
2022-08-04T07:48:49.160Z,72932.78
2022-08-04T07:51:17.107Z,72892.34
2022-08-04T07:53:55.012Z,72823.03
2022-08-04T07:56:23.395Z,73061.75
2022-08-04T07:58:50.599Z,73150.28
2022-08-04T08:01:19.325Z,73169.56
2022-08-04T08:03:46.894Z,73052.13
2022-08-04T08:06:17.235Z,72957.78
2022-08-04T08:09:12.600Z,73004.00
2022-08-04T08:12:36.226Z,73192.66
2022-08-04T08:14:35.814Z,73177.25
2022-08-04T08:17:03.440Z,73288.91
2022-08-04T08:19:34.916Z,73439.06
2022-08-04T08:22:03.187Z,73358.22
2022-08-04T08:24:31.464Z,73329.34
2022-08-04T08:27:04.411Z,73344.75
2022-08-04T08:29:33.866Z,73389.03
2022-08-04T08:32:07.707Z,73485.28
2022-08-04T08:34:36.334Z,73581.56
2022-08-04T08:37:42.167Z,73496.84
2022-08-04T08:40:41.560Z,73521.88
2022-08-04T08:44:06.196Z,73439.06
2022-08-04T08:46:56.120Z,73415.97
2022-08-04T08:50:01.548Z,73591.19
2022-08-04T08:53:02.524Z,73510.31
2022-08-04T08:55:46.025Z,73568.06
2022-08-04T08:58:25.306Z,73487.22
2022-08-04T09:01:37.008Z,73525.72
2022-08-04T09:04:08.821Z,73612.34
2022-08-04T09:07:01.869Z,73562.28
2022-08-04T09:09:31.512Z,73548.81
2022-08-04T09:12:20.079Z,73483.34
2022-08-04T09:14:58.473Z,73433.31
2022-08-04T09:17:33.421Z,73673.97
2022-08-04T09:20:07.830Z,73697.06
2022-08-04T09:22:54.691Z,73627.75
2022-08-04T09:25:31.377Z,73566.16
2022-08-04T09:28:37.149Z,73518.00
2022-08-04T09:31:23.451Z,73537.25
2022-08-04T09:33:53.098Z,73521.88
2022-08-04T09:36:35.982Z,73531.50
2022-08-04T09:39:09.930Z,73454.47
2022-08-04T09:41:56.044Z,73446.78
2022-08-04T09:44:50.267Z,73415.97
2022-08-04T09:47:39.182Z,73412.13
2022-08-04T09:50:35.936Z,73400.56
2022-08-04T09:53:24.374Z,73354.38
2022-08-04T09:56:09.909Z,73471.81
2022-08-04T09:59:07.447Z,73450.63
2022-08-04T10:01:36.779Z,73527.63
2022-08-04T10:04:08.117Z,73475.66
2022-08-04T10:06:45.984Z,73435.22
2022-08-04T10:09:18.566Z,73427.53
2022-08-04T10:11:55.631Z,73367.84
2022-08-04T10:14:33.018Z,73435.22
2022-08-04T10:17:31.032Z,73467.97
2022-08-04T10:20:44.373Z,73481.44
2022-08-04T10:23:18.801Z,73562.28
2022-08-04T10:26:12.470Z,73558.44
2022-08-04T10:28:46.644Z,73527.63
2022-08-04T10:31:20.945Z,73448.69
2022-08-04T10:34:11.603Z,73452.56
2022-08-04T10:37:20.155Z,73527.63
2022-08-04T10:40:15.643Z,73531.50
2022-08-04T10:43:22.003Z,73496.84
2022-08-04T10:45:58.515Z,73516.09
2022-08-04T10:49:04.022Z,73483.34
2022-08-04T10:51:58.715Z,73446.78
2022-08-04T10:54:48.140Z,73410.19
2022-08-04T10:57:23.952Z,73385.16
2022-08-04T11:00:03.729Z,73358.22
2022-08-04T11:02:42.959Z,73335.13
2022-08-04T11:05:16.465Z,73331.25
2022-08-04T11:07:47.404Z,73337.03
2022-08-04T11:10:20.693Z,73312.00
2022-08-04T11:12:56.763Z,73306.22
2022-08-04T11:15:52.812Z,73308.16
2022-08-04T11:18:27.256Z,73329.34
2022-08-04T11:21:23.759Z,73304.31
2022-08-04T11:24:03.225Z,73306.22
2022-08-04T11:26:43.835Z,73367.84
2022-08-04T11:29:21.082Z,73319.72
2022-08-04T11:31:51.987Z,73404.41
2022-08-04T11:34:27.198Z,73367.84
2022-08-04T11:37:21.250Z,73356.28
2022-08-04T11:40:04.354Z,73371.69
2022-08-04T11:42:37.918Z,73365.91
2022-08-04T11:45:11.471Z,73327.41
2022-08-04T11:47:52.046Z,73312.00
2022-08-04T11:50:26.224Z,73321.63
2022-08-04T11:52:57.186Z,73292.75
2022-08-04T11:55:27.136Z,73250.41
2022-08-04T11:57:54.964Z,73306.22
2022-08-04T12:00:22.863Z,73296.59
2022-08-04T12:03:20.720Z,73306.22
2022-08-04T12:06:15.433Z,73285.06
2022-08-04T12:09:23.877Z,73277.34
2022-08-04T12:12:08.060Z,73300.47
2022-08-04T12:14:37.648Z,73319.72
2022-08-04T12:17:06.210Z,73288.91
2022-08-04T12:19:58.617Z,73352.44
2022-08-04T12:22:29.764Z,73350.50
2022-08-04T12:25:24.910Z,73342.81
2022-08-04T12:28:20.762Z,73302.38
2022-08-04T12:30:59.819Z,73271.59
2022-08-04T12:34:04.568Z,73304.31
2022-08-04T12:36:55.601Z,73306.22
2022-08-04T12:39:25.796Z,73273.50
2022-08-04T12:42:11.537Z,73321.63
2022-08-04T12:44:43.215Z,73290.84
2022-08-04T12:47:28.493Z,73304.31
2022-08-04T12:50:02.426Z,73342.81
2022-08-04T12:53:06.921Z,73281.22
2022-08-04T12:55:35.591Z,73285.06
2022-08-04T12:58:11.680Z,73338.97
2022-08-04T13:00:41.769Z,73362.06
2022-08-04T13:03:12.295Z,73346.66
2022-08-04T13:05:41.281Z,73323.56
2022-08-04T13:08:10.667Z,73350.50
2022-08-04T13:10:42.589Z,73323.56
2022-08-04T13:13:16.886Z,73323.56
2022-08-04T13:15:47.001Z,73342.81
2022-08-04T13:18:29.966Z,73296.59
2022-08-04T13:21:20.814Z,73281.22
2022-08-04T13:24:09.819Z,73285.06
2022-08-04T13:26:58.363Z,73273.50
2022-08-04T13:29:59.431Z,73260.03
2022-08-04T13:32:28.697Z,73248.47
2022-08-04T13:34:57.701Z,73244.63
2022-08-04T13:37:38.949Z,73238.84
2022-08-04T13:40:10.073Z,73267.72
2022-08-04T13:42:37.702Z,73250.41
2022-08-04T13:45:07.350Z,73273.50
2022-08-04T13:47:38.163Z,73263.88
2022-08-04T13:50:45.718Z,73273.50
2022-08-04T13:53:13.182Z,73277.34
2022-08-04T13:55:40.920Z,73254.25
2022-08-04T13:58:11.009Z,73250.41
2022-08-04T14:00:42.327Z,73248.47
2022-08-04T14:03:19.071Z,73221.53
2022-08-04T14:06:17.207Z,73227.31
2022-08-04T14:08:52.579Z,73231.16
2022-08-04T14:12:10.168Z,73242.69
2022-08-04T14:14:21.518Z,73246.56
2022-08-04T14:17:20.202Z,73261.97
2022-08-04T14:19:50.388Z,73258.09
2022-08-04T14:22:26.221Z,73296.59
2022-08-04T14:25:17.117Z,73296.59
2022-08-04T14:27:46.998Z,73286.97
2022-08-04T14:30:37.377Z,73285.06
2022-08-04T14:34:01.617Z,73281.22
2022-08-04T14:35:59.050Z,73304.31
2022-08-04T14:38:45.784Z,73312.00
2022-08-04T14:41:13.588Z,73335.13
2022-08-04T14:44:04.611Z,73306.22
2022-08-04T14:46:36.974Z,73285.06
2022-08-04T14:49:12.606Z,73265.81
2022-08-04T14:51:45.263Z,73267.72
2022-08-04T14:54:18.410Z,73312.00
2022-08-04T14:56:55.325Z,73342.81
2022-08-04T14:59:22.488Z,73350.50
2022-08-04T15:02:01.069Z,73342.81
2022-08-04T15:04:30.089Z,73350.50
2022-08-04T15:06:57.232Z,73327.41
2022-08-04T15:09:24.413Z,73315.84
2022-08-04T15:11:54.149Z,73319.72
2022-08-04T15:14:36.753Z,73329.34
2022-08-04T15:17:11.956Z,73356.28
2022-08-04T15:19:56.237Z,73365.91
2022-08-04T15:22:23.685Z,73373.63
2022-08-04T15:24:55.125Z,73373.63
2022-08-04T15:27:28.766Z,73373.63
2022-08-04T15:30:01.907Z,73365.91
2022-08-04T15:32:35.442Z,73383.25
2022-08-04T15:35:06.803Z,73392.88
2022-08-04T15:37:57.802Z,73400.56
2022-08-04T15:40:37.446Z,73404.41
2022-08-04T15:43:20.525Z,73404.41
2022-08-04T15:46:41.887Z,73408.28
2022-08-04T15:48:39.164Z,73406.34
2022-08-04T15:51:14.448Z,73414.03
2022-08-04T15:54:02.452Z,73415.97
2022-08-04T15:56:29.759Z,73419.81
2022-08-04T15:58:56.950Z,73435.22
2022-08-04T16:01:24.368Z,73431.38
2022-08-04T16:04:00.050Z,73435.22
2022-08-04T16:06:29.575Z,73444.84
2022-08-04T16:09:00.920Z,73448.69
2022-08-04T16:11:32.927Z,73446.78
2022-08-04T16:14:00.257Z,73439.06
2022-08-04T16:16:34.652Z,73446.78
2022-08-04T16:19:34.940Z,73462.19
2022-08-04T16:22:03.992Z,73469.88
2022-08-04T16:24:36.354Z,73475.66
2022-08-04T16:27:11.850Z,73479.50
2022-08-04T16:29:48.998Z,73483.34
2022-08-04T16:32:22.844Z,73492.97
2022-08-04T16:35:00.100Z,73502.59
2022-08-04T16:37:35.659Z,73516.09
2022-08-04T16:40:35.124Z,73512.22
2022-08-04T16:43:07.644Z,73519.94
2022-08-04T16:45:40.501Z,73516.09
2022-08-04T16:48:10.127Z,73514.16
2022-08-04T16:51:09.619Z,73523.78
2022-08-04T16:53:53.738Z,73539.19
2022-08-04T16:56:34.244Z,73550.75
2022-08-04T16:59:12.872Z,73558.44
2022-08-04T17:01:51.633Z,73570.00
2022-08-04T17:04:27.769Z,73577.69
2022-08-04T17:07:02.994Z,73585.41
2022-08-04T17:09:30.439Z,73593.09
2022-08-04T17:11:58.398Z,73600.81
2022-08-04T17:14:28.505Z,73616.19
2022-08-04T17:17:01.447Z,73620.06
2022-08-04T17:19:28.652Z,73621.97
2022-08-04T17:22:04.823Z,73627.75
2022-08-04T17:24:38.372Z,73643.16
2022-08-04T17:28:08.476Z,73658.56
2022-08-04T17:29:53.535Z,73670.13
2022-08-04T17:32:22.630Z,73677.81
2022-08-04T17:35:03.952Z,73681.66
2022-08-04T17:37:39.401Z,73704.78
2022-08-04T17:40:10.284Z,73716.31
2022-08-04T17:42:39.890Z,73729.81
2022-08-04T17:47:58.931Z,73770.25
2022-08-04T17:50:32.935Z,73777.94
2022-08-04T17:55:52.611Z,73814.53
2022-08-04T17:58:24.023Z,73824.16
2022-08-04T18:01:24.623Z,73835.69
2022-08-04T18:03:53.350Z,73851.09
2022-08-04T18:06:25.743Z,73860.72
2022-08-04T18:08:59.159Z,73874.22
2022-08-04T18:11:53.134Z,73897.31
2022-08-04T18:14:28.714Z,73916.56
2022-08-04T18:16:56.553Z,73930.06
2022-08-04T18:19:23.821Z,73937.75
2022-08-04T18:21:59.519Z,73955.09
2022-08-04T18:24:35.482Z,73976.25
2022-08-04T18:27:18.700Z,73995.53
2022-08-04T18:29:56.491Z,74010.94
2022-08-04T18:32:35.768Z,74043.66
2022-08-04T18:35:07.226Z,74082.16
2022-08-04T18:38:06.816Z,74101.44
2022-08-04T18:40:31.193Z,74126.47
2022-08-04T18:43:05.486Z,74151.50
2022-08-04T18:45:34.016Z,74172.69
2022-08-04T18:48:20.060Z,74199.63
2022-08-04T18:51:10.505Z,74228.53
2022-08-04T18:53:35.329Z,74251.63
2022-08-04T18:56:03.978Z,74278.59
2022-08-04T18:58:33.639Z,74297.84
2022-08-04T19:01:01.295Z,74313.25
2022-08-04T19:03:33.190Z,74344.06
2022-08-04T19:06:02.654Z,74367.19
2022-08-04T19:08:35.528Z,74396.06
2022-08-04T19:11:36.863Z,74405.69
2022-08-04T19:13:58.068Z,74417.25
2022-08-04T19:16:32.332Z,74440.34
2022-08-04T19:19:00.774Z,74448.06
2022-08-04T19:21:59.223Z,74457.69
2022-08-04T19:24:32.990Z,74463.47
2022-08-04T19:27:08.297Z,74471.16
2022-08-04T19:29:41.347Z,74486.56
2022-08-04T19:32:15.842Z,74494.28
2022-08-04T19:34:47.615Z,74509.69
2022-08-04T19:37:56.347Z,74517.38
2022-08-04T19:40:09.376Z,74532.81
2022-08-04T19:42:36.877Z,74548.22
2022-08-04T19:45:05.330Z,74559.75
2022-08-04T19:48:15.959Z,74571.31
2022-08-04T19:50:19.662Z,74575.16
2022-08-04T19:52:51.470Z,74582.88
2022-08-04T19:58:12.346Z,74596.34
2022-08-04T20:00:44.829Z,74602.13
2022-08-04T20:03:20.472Z,74605.97
2022-08-04T20:05:55.152Z,74625.25
2022-08-04T20:08:26.664Z,74631.03
2022-08-04T20:11:00.531Z,74642.56
2022-08-04T20:13:37.054Z,74644.50
2022-08-04T20:16:20.226Z,74652.22
2022-08-04T20:18:59.506Z,74663.75
2022-08-04T20:21:53.445Z,74675.31
2022-08-04T20:24:38.908Z,74694.56
2022-08-04T20:27:14.609Z,74709.97
2022-08-04T20:29:49.058Z,74709.97
2022-08-04T20:32:22.699Z,74719.63
2022-08-04T20:37:55.434Z,74715.75
2022-08-04T20:40:27.064Z,74717.69
2022-08-04T20:42:54.142Z,74727.31
2022-08-04T20:45:55.775Z,74733.09
2022-08-04T20:48:11.225Z,74736.94
2022-08-04T20:50:38.089Z,74736.94
2022-08-04T20:53:16.359Z,74738.88
2022-08-04T20:55:55.510Z,74744.66
2022-08-04T20:58:27.311Z,74754.28
2022-08-04T21:00:55.499Z,74760.06
2022-08-04T21:03:49.938Z,74760.06
2022-08-04T21:06:09.481Z,74773.53
2022-08-04T21:08:37.210Z,74779.31
2022-08-04T21:11:06.759Z,74787.03
2022-08-04T21:13:50.808Z,74788.94
2022-08-04T21:16:55.587Z,74798.59
2022-08-04T21:19:12.982Z,74798.59
2022-08-04T21:21:41.602Z,74802.44
2022-08-04T21:24:09.307Z,74810.13
2022-08-04T21:26:36.294Z,74814.00
2022-08-04T21:29:04.941Z,74817.84
2022-08-04T21:31:36.771Z,74825.53
2022-08-04T21:39:59.046Z,74848.66
2022-08-04T21:42:29.344Z,74852.50
2022-08-04T21:45:13.276Z,74867.91
2022-08-04T21:47:46.480Z,74883.31
2022-08-04T21:50:19.531Z,74898.72
2022-08-04T21:52:48.982Z,74904.50
2022-08-04T21:55:19.494Z,74912.22
2022-08-04T21:57:46.700Z,74925.69
2022-08-04T22:00:19.526Z,74933.41
2022-08-04T22:02:47.246Z,74931.47
2022-08-04T22:05:20.944Z,74933.41
2022-08-04T22:07:50.261Z,74950.75
2022-08-04T22:10:32.213Z,74948.81
2022-08-04T22:13:06.736Z,74966.16
2022-08-04T22:16:04.718Z,74971.94
2022-08-04T22:18:24.693Z,74987.34
2022-08-04T22:20:54.489Z,74985.41
2022-08-04T22:23:25.310Z,74993.13
2022-08-04T22:25:55.864Z,74991.19
2022-08-04T22:28:25.507Z,74991.19
2022-08-04T22:30:55.408Z,74995.03
2022-08-04T22:33:23.002Z,75000.81
2022-08-04T22:35:50.262Z,75010.44
2022-08-04T22:38:24.421Z,75018.16
2022-08-04T22:41:01.875Z,75018.16
2022-08-04T22:43:31.669Z,75022.00
2022-08-04T22:46:03.795Z,75025.84
2022-08-04T22:48:34.377Z,75025.84
2022-08-04T22:51:02.696Z,75022.00
2022-08-04T22:53:30.073Z,75025.84
2022-08-04T22:56:09.911Z,75029.72
2022-08-04T22:58:45.396Z,75039.34
2022-08-04T23:01:18.407Z,75045.13
2022-08-04T23:03:50.941Z,75062.47
2022-08-04T23:06:28.595Z,75064.38
2022-08-04T23:08:57.736Z,75066.31
2022-08-04T23:11:24.778Z,75060.53
2022-08-04T23:14:01.985Z,75064.38
2022-08-04T23:16:29.049Z,75064.38
2022-08-04T23:18:56.657Z,75074.00
2022-08-04T23:21:24.341Z,75074.00
2022-08-04T23:24:00.874Z,75075.94
2022-08-04T23:26:30.318Z,75083.66
2022-08-04T23:28:57.484Z,75095.19
2022-08-04T23:31:24.708Z,75097.13
2022-08-04T23:33:52.401Z,75106.75
2022-08-04T23:36:29.705Z,75102.91
2022-08-04T23:39:03.914Z,75099.06
2022-08-04T23:41:53.524Z,75100.97
2022-08-04T23:44:25.398Z,75095.19
2022-08-04T23:47:03.725Z,75097.13
2022-08-04T23:49:43.238Z,75095.19
2022-08-04T23:52:29.601Z,75110.63
2022-08-04T23:55:00.839Z,75114.47
2022-08-04T23:58:02.375Z,75116.38
